• Join FlightAware (Why Join?)
  • Login
  • US Flag 
12:02AM EDT


 

Airport Tracker/Info


-or-


 

Live Flight TrackerFlight Track Log ✈ CPA881 ✈ 09-May-2012 ✈ KLAX - VHHH / HKG

Flight Track Log - Related Links

Times and Time Zones

All times are in EDT time to prevent confusion due to time zone crossing. See the CPA881 flight status page for this flight to view local times or setup timezone preferences in your user account.

Time Position Orientation Groundspeed Altitude Reporting Facility
EDT Latitude Longitude Course Direction KTS MPH feet Rate Location/Type
04:51AM 33.9333 -118.4500 260° West 232 267 1,700  Level Southern California TRACON
04:52AM 33.9197 -118.5419 260° West 243 280 3,500 1,620 Climbing Los Angeles Center
04:53AM 33.9075 -118.6292 263° West 277 319 5,400 2,100 Climbing Los Angeles Center
04:54AM 33.8969 -118.7264 262° West 288 331 7,800 2,220 Climbing Los Angeles Center
04:55AM 33.8844 -118.8286 292° West 304 350 9,900 1,680 Climbing Los Angeles Center
04:56AM 33.9175 -118.9272 325° Northwest 309 356 11,200 1,440 Climbing Los Angeles Center
04:57AM 34.0036 -119.0003 330° Northwest 323 372 12,800 2,040 Climbing Los Angeles Center
04:58AM 34.1083 -119.0742 328° Northwest 364 419 15,300 2,460 Climbing Los Angeles Center
04:59AM 34.2025 -119.1453 329° Northwest 384 442 17,800 2,160 Climbing Los Angeles Center
05:00AM 34.2989 -119.2142 329° Northwest 395 455 19,700 1,860 Climbing Los Angeles Center
05:01AM 34.3992 -119.2858 330° Northwest 402 463 21,600 5,100 Climbing Los Angeles Center
05:02AM 34.4997 -119.3575 331° Northwest 412 474 30,000 1,560 Climbing Los Angeles Center
05:03AM 34.6061 -119.4300 333° Northwest 423 487 24,800 -2,040 Descending Los Angeles Center
05:04AM 34.7047 -119.4919 328° Northwest 433 498 26,000 1,200 Climbing Los Angeles Center
05:05AM 34.8111 -119.5722 331° Northwest 438 504 27,200 1,200 Climbing Los Angeles Center
05:06AM 34.9214 -119.6478 329° Northwest 443 510 28,400 1,200 Climbing Los Angeles Center
05:07AM 35.0339 -119.7311 329° Northwest 453 521 29,600 780 Climbing Los Angeles Center
05:08AM 35.1442 -119.8122 329° Northwest 458 527 30,000 120 Climbing Los Angeles Center
05:10AM 35.3722 -119.9806 329° Northwest 460 529 30,000  Level Oakland Center
05:11AM 35.4961 -120.0708 329° Northwest 460 529 30,000  Level Oakland Center
05:12AM 35.6072 -120.1539 327° Northwest 465 535 30,000  Level Oakland Center
05:13AM 35.7164 -120.2397 329° Northwest 465 535 30,000  Level Oakland Center
05:14AM 35.8272 -120.3206 329° Northwest 465 535 30,000  Level Oakland Center
05:15AM 35.9383 -120.4042 329° Northwest 465 535 30,000  Level Oakland Center
05:16AM 36.0472 -120.4856 329° Northwest 465 535 30,000  Level Oakland Center
05:17AM 36.1622 -120.5722 328° Northwest 465 535 30,000  Level Oakland Center
05:18AM 36.2708 -120.6567 328° Northwest 465 535 30,000  Level Oakland Center
05:19AM 36.3817 -120.7414 329° Northwest 465 535 30,000  Level Oakland Center
05:20AM 36.4944 -120.8264 329° Northwest 470 541 30,000  Level Oakland Center
05:21AM 36.6050 -120.9089 328° Northwest 470 541 30,000  Level Oakland Center
05:22AM 36.7158 -120.9969 329° Northwest 470 541 30,000  Level Oakland Center
05:23AM 36.8033 -121.0617 328° Northwest 470 541 30,000  Level Oakland Center
05:24AM 36.9200 -121.1528 329° Northwest 461 531 30,000  Level Oakland Center
05:25AM 37.0325 -121.2364 329° Northwest 467 537 30,000  Level Oakland Center
05:26AM 37.1533 -121.3278 328° Northwest 467 537 30,000  Level Oakland Center
05:27AM 37.2636 -121.4144 327° Northwest 467 537 30,000  Level Oakland Center
05:28AM 37.3653 -121.4961 328° Northwest 472 543 30,000  Level Oakland Center
05:29AM 37.4775 -121.5833 328° Northwest 477 549 30,000  Level Oakland Center
05:30AM 37.5878 -121.6706 328° Northwest 477 549 30,000  Level Oakland Center
05:31AM 37.6997 -121.7583 328° Northwest 477 549 30,000  Level Oakland Center
05:32AM 37.8097 -121.8464 329° Northwest 477 549 30,000  Level Oakland Center
05:33AM 37.9236 -121.9344 327° Northwest 477 549 30,000  Level Oakland Center
05:34AM 38.0356 -122.0256 325° Northwest 477 549 30,000  Level Oakland Center
05:35AM 38.1536 -122.1303 336° Northwest 477 549 30,000  Level Oakland Center
05:36AM 38.2656 -122.1928 340° North 472 543 30,000  Level Oakland Center
05:37AM 38.3900 -122.2506 340° North 472 543 30,000  Level Oakland Center
05:38AM 38.5186 -122.3114 339° North 477 549 30,000  Level Oakland Center
05:39AM 38.6411 -122.3719 336° Northwest 477 549 30,000  Level Oakland Center
05:40AM 38.7633 -122.4408 340° North 477 549 30,000  Level Oakland Center
05:41AM 38.8917 -122.5022 338° Northwest 477 549 30,000  Level Oakland Center
05:42AM 39.0161 -122.5664 339° North 477 549 30,000  Level Oakland Center
05:43AM 39.1403 -122.6281 340° North 477 549 30,000  Level Oakland Center
05:44AM 39.2686 -122.6900 338° Northwest 477 549 30,000  Level Oakland Center
05:45AM 39.3928 -122.7547 337° Northwest 482 555 30,000  Level Oakland Center
05:46AM 39.5189 -122.8225 340° North 482 555 30,000  Level Oakland Center
05:47AM 39.6453 -122.8825 341° North 482 555 30,000  Level Oakland Center
05:48AM 39.7756 -122.9400 339° North 488 562 30,000  Level Oakland Center
05:49AM 39.8997 -123.0031 339° North 488 562 30,000  Level Oakland Center
05:50AM 40.0278 -123.0664 339° North 488 562 30,000  Level Oakland Center
05:52AM 40.2067 -123.1558 338° Northwest 489 563 30,000  Level Seattle Center
05:53AM 40.3300 -123.2219 338° Northwest 486 559 30,000  Level Seattle Center
05:54AM 40.4542 -123.2869 339° North 483 556 30,000  Level Seattle Center
05:55AM 40.5783 -123.3511 339° North 483 556 30,000  Level Seattle Center
05:56AM 40.7056 -123.4156 339° North 487 560 30,000  Level Seattle Center
05:57AM 40.8311 -123.4800 338° Northwest 488 562 30,000  Level Seattle Center
05:58AM 40.9558 -123.5464 339° North 487 560 30,000  Level Seattle Center
05:59AM 41.0808 -123.6114 338° Northwest 486 559 30,000  Level Seattle Center
06:00AM 41.2092 -123.6794 338° Northwest 492 566 30,000  Level Seattle Center
06:01AM 41.3358 -123.7478 339° North 494 568 30,000  Level Seattle Center
06:02AM 41.4606 -123.8133 338° Northwest 488 562 30,000  Level Seattle Center
06:03AM 41.5856 -123.8811 338° Northwest 487 560 30,000  Level Seattle Center
06:04AM 41.7119 -123.9489 338° Northwest 489 563 30,000  Level Seattle Center
06:05AM 41.8372 -124.0167 338° Northwest 488 562 30,000  Level Seattle Center
06:06AM 41.9625 -124.0850 338° Northwest 487 560 30,000  Level Seattle Center
06:07AM 42.0881 -124.1539 338° Northwest 488 562 30,000  Level Seattle Center
06:08AM 42.2133 -124.2222 338° Northwest 488 562 30,000  Level Seattle Center
06:09AM 42.3386 -124.2911 338° Northwest 487 560 30,000  Level Seattle Center
06:10AM 42.4639 -124.3597 337° Northwest 487 560 30,000  Level Seattle Center
06:11AM 42.5886 -124.4300 338° Northwest 487 560 30,000  Level Seattle Center
06:12AM 42.7142 -124.4997 337° Northwest 487 560 30,000  Level Seattle Center
06:13AM 42.8394 -124.5708 338° Northwest 489 563 30,000  Level Seattle Center
06:14AM 42.9578 -124.6367 337° Northwest 487 560 30,000  Level Seattle Center
06:15AM 43.0842 -124.7086 338° Northwest 490 564 30,000  Level Seattle Center
06:16AM 43.2106 -124.7797 338° Northwest 491 565 30,000  Level Seattle Center
06:17AM 43.3375 -124.8519 337° Northwest 493 567 30,000 660 Level Seattle Center
06:18AM 43.4639 -124.9250 337° Northwest 494 568 31,400 960 Climbing Seattle Center
06:19AM 43.5906 -124.9983 337° Northwest 493 567 32,000 300 Climbing Seattle Center
06:20AM 43.7161 -125.0711 337° Northwest 491 565 32,000  Level Seattle Center
06:21AM 43.8389 -125.1428 337° Northwest 483 556 32,000  Level Seattle Center
06:22AM 43.9650 -125.2158 337° Northwest 487 560 32,000  Level Seattle Center
06:23AM 44.0917 -125.2911 337° Northwest 490 564 32,000  Level Seattle Center
06:24AM 44.2178 -125.3647 337° Northwest 492 566 32,000  Level Seattle Center
06:25AM 44.3431 -125.4397 337° Northwest 490 564 32,000  Level Seattle Center
06:26AM 44.4694 -125.5158 338° Northwest 492 566 32,000  Level Seattle Center
06:27AM 44.5994 -125.5914 334° Northwest 500 575 32,000  Level Seattle Center
06:28AM 44.6833 -125.6500 333° Northwest 490 564 32,000  Level Vancouver Center
06:29AM 44.8000 -125.7333 341° North 490 564 32,000  Level Vancouver Center
06:30AM 44.9761 -125.8181 328° Northwest 489 563 32,000  Level Seattle Center
06:31AM 45.0500 -125.8833 341° North 490 564 32,000  Level Vancouver Center
06:32AM 45.1833 -125.9500 336° Northwest 490 564 32,000  Level Vancouver Center
06:33AM 45.3167 -126.0333 339° North 490 564 32,000  Level Vancouver Center
06:34AM 45.4792 -126.1239 336° Northwest 491 565 32,000  Level Seattle Center
06:35AM 45.6011 -126.2028 337° Northwest 488 562 32,000  Level Seattle Center
06:36AM 45.7264 -126.2803 336° Northwest 488 562 32,000  Level Seattle Center
06:37AM 45.8503 -126.3600 337° Northwest 489 563 32,000  Level Seattle Center
06:38AM 45.9997 -126.4531 336° Northwest 489 563 32,000  Level Seattle Center
06:39AM 46.1244 -126.5333 322° Northwest 490 564 32,000  Level Seattle Center
06:40AM 46.1833 -126.6000 338° Northwest 490 564 32,000  Level Vancouver Center
06:41AM 46.3000 -126.6667 340° North 490 564 32,000  Level Vancouver Center
06:42AM 46.5014 -126.7725 336° Northwest 493 567 32,000  Level Seattle Center
06:43AM 46.6258 -126.8525 336° Northwest 492 566 32,000  Level Seattle Center
06:44AM 46.7514 -126.9336 336° Northwest 493 567 32,000  Level Seattle Center
06:45AM 46.8775 -127.0147 335° Northwest 493 567 32,000  Level Seattle Center
06:46AM 47.0022 -127.0986 324° Northwest 494 568 32,000  Level Seattle Center
06:47AM 47.0500 -127.1500 339° North 490 564 32,000  Level Vancouver Center
06:48AM 47.2542 -127.2647 335° Northwest 497 572 32,000  Level Seattle Center
06:49AM 47.3803 -127.3500 327° Northwest 499 574 32,000  Level Seattle Center
06:50AM 47.4333 -127.4000 332° Northwest 500 575 32,000  Level Vancouver Center
06:51AM 47.5833 -127.5167 334° Northwest 510 587 32,000  Level Vancouver Center
06:52AM 47.7000 -127.6000 337° Northwest 500 575 32,000  Level Vancouver Center
06:53AM 47.8333 -127.6833 337° Northwest 500 575 32,000  Level Vancouver Center
06:54AM 47.9667 -127.7667 334° Northwest 500 575 32,000  Level Vancouver Center
06:55AM 48.0833 -127.8500 337° Northwest 500 575 32,000  Level Vancouver Center
06:56AM 48.2167 -127.9333 337° Northwest 500 575 32,000  Level Vancouver Center
06:57AM 48.3500 -128.0167 335° Northwest 500 575 32,000  Level Vancouver Center
06:58AM 48.4667 -128.1000 334° Northwest 510 587 32,000  Level Vancouver Center
06:59AM 48.6000 -128.2000 346° North 510 587 32,000  Level Vancouver Center
07:00AM 48.7333 -128.2500 334° Northwest 500 575 32,000  Level Vancouver Center
07:01AM 48.8667 -128.3500 346° North 510 587 32,000  Level Vancouver Center
07:02AM 49.0000 -128.4000 334° Northwest 510 587 32,000  Level Vancouver Center
07:03AM 49.1333 -128.5000 335° Northwest 500 575 32,000  Level Vancouver Center
07:04AM 49.2500 -128.5833 344° North 510 587 32,000  Level Vancouver Center
07:05AM 49.4000 -128.6500 335° Northwest 510 587 32,000  Level Vancouver Center
07:06AM 49.5167 -128.7333 342° North 500 575 32,000  Level Vancouver Center
07:07AM 49.6500 -128.8000 334° Northwest 500 575 32,000  Level Vancouver Center
07:08AM 49.7833 -128.9000 342° North 500 575 32,000  Level Vancouver Center
07:09AM 49.9167 -128.9667 332° Northwest 500 575 32,000  Level Vancouver Center
07:10AM 50.0167 -129.0500 331° Northwest 490 564 32,000  Level Vancouver Center
07:11AM 50.1500 -129.1667 327° Northwest 480 552 32,000  Level Vancouver Center
07:12AM 50.2667 -129.2833 323° Northwest 490 564 32,000  Level Vancouver Center
07:13AM 50.3667 -129.4000 328° Northwest 480 552 32,000  Level Vancouver Center
07:14AM 50.4833 -129.5167 328° Northwest 490 564 32,000  Level Vancouver Center
07:15AM 50.6167 -129.6500 318° Northwest 490 564 32,000  Level Vancouver Center
07:16AM 50.7000 -129.7667 331° Northwest 490 564 32,000  Level Vancouver Center
07:17AM 50.8333 -129.8833 332° Northwest 490 564 32,000  Level Vancouver Center
07:18AM 50.9500 -129.9833 324° Northwest 490 564 32,000  Level Vancouver Center
07:19AM 51.0500 -130.1000 328° Northwest 490 564 32,000  Level Vancouver Center
07:20AM 51.1667 -130.2167 324° Northwest 480 552 32,000  Level Vancouver Center
07:21AM 51.2833 -130.3500 328° Northwest 490 564 32,000  Level Vancouver Center
07:22AM 51.4000 -130.4667 328° Northwest 480 552 32,000  Level Vancouver Center
07:23AM 51.5000 -130.5667 328° Northwest 480 552 32,000  Level Vancouver Center
07:24AM 51.6167 -130.6833 325° Northwest 480 552 32,000  Level Vancouver Center
07:25AM 51.7333 -130.8167 328° Northwest 480 552 32,000  Level Vancouver Center
07:26AM 51.8500 -130.9333 321° Northwest 480 552 32,000  Level Vancouver Center
07:27AM 51.9500 -131.0667 332° Northwest 480 552 32,000  Level Vancouver Center
07:28AM 52.0667 -131.1667 338° Northwest 480 552 32,000  Level Vancouver Center
07:29AM 52.1667 -131.2333 316° Northwest 490 564 32,000  Level Anchorage Center
07:30AM 52.2833 -131.4167 325° Northwest 480 552 32,000  Level Vancouver Center
07:31AM 52.4000 -131.5500 343° North 480 552 32,000  Level Vancouver Center
07:32AM 52.5000 -131.6000 321° Northwest 480 552 32,000  Level Anchorage Center
07:33AM 52.6000 -131.7333 329° Northwest 470 541 32,000  Level Anchorage Center
07:34AM 52.7167 -131.8500 325° Northwest 480 552 32,000  Level Anchorage Center
07:35AM 52.8167 -131.9667 329° Northwest 480 552 32,000  Level Anchorage Center
07:36AM 52.9333 -132.0833 321° Northwest 480 552 32,000  Level Anchorage Center
07:37AM 53.0333 -132.2167 326° Northwest 470 541 32,000  Level Anchorage Center
07:38AM 53.1500 -132.3500 325° Northwest 470 541 32,000  Level Anchorage Center
07:39AM 53.2500 -132.4667 312° West 470 541 32,000  Level Anchorage Center
07:40AM 53.3500 -132.6500 329° Northwest 480 552 32,000  Level Vancouver Center
07:41AM 53.4833 -132.7833 316° Northwest 470 541 32,000  Level Vancouver Center
07:42AM 53.5667 -132.9167 333° Northwest 480 552 32,000  Level Vancouver Center
07:43AM 53.7000 -133.0333 317° Northwest 470 541 32,000  Level Vancouver Center
07:44AM 53.7833 -133.1667 326° Northwest 470 541 32,000  Level Vancouver Center
07:45AM 53.9000 -133.3000 322° Northwest 470 541 32,000  Level Vancouver Center
07:46AM 54.0000 -133.4333 330° Northwest 470 541 32,000  Level Vancouver Center
07:47AM 54.1167 -133.5500 322° Northwest 470 541 32,000  Level Vancouver Center
07:48AM 54.2167 -133.6833 313° West 470 541 32,000  Level Vancouver Center
07:49AM 54.3167 -133.8667 325° Northwest 470 541 32,000  Level Vancouver Center
07:50AM 54.4000 -133.9667 319° Northwest 480 552 32,000  Level Anchorage Center
07:51AM 54.5000 -134.1167 316° Northwest 470 541 32,000  Level Anchorage Center
07:52AM 54.6000 -134.2833 311° West 470 541 32,000  Level Anchorage Center
07:53AM 54.6667 -134.4167 305° West 470 541 32,000  Level Anchorage Center
07:54AM 54.7667 -134.6667 316° Northwest 470 541 32,000  Level Vancouver Center
07:55AM 54.8667 -134.8333 314° West 470 541 32,000  Level Vancouver Center
07:56AM 54.9500 -134.9833 330° Northwest 470 541 32,000  Level Vancouver Center
07:57AM 55.0333 -135.0667 316° Northwest 470 541 32,000  Level Anchorage Center
07:58AM 55.1333 -135.2333 311° West 470 541 32,000  Level Anchorage Center
07:59AM 55.2167 -135.4000 311° West 470 541 32,000  Level Anchorage Center
08:00AM 55.3000 -135.5667 305° West 470 541 32,000  Level Anchorage Center
08:01AM 55.4000 -135.8167 314° West 470 541 32,000  Level Vancouver Center
08:02AM 55.5000 -136.0000 318° Northwest 470 541 32,000  Level Vancouver Center
08:03AM 55.5833 -136.1333 315° West 470 541 32,000  Level Vancouver Center
08:04AM 55.6667 -136.2833 309° West 470 541 32,000  Level Vancouver Center
08:05AM 55.7500 -136.4667 312° West 470 541 32,000  Level Vancouver Center
08:06AM 55.8333 -136.6333 314° West 470 541 32,000  Level Vancouver Center
08:07AM 55.9333 -136.8167 315° West 470 541 32,000  Level Vancouver Center
08:08AM 56.0167 -136.9667 309° West 470 541 32,000  Level Vancouver Center
08:09AM 56.1000 -137.1500 309° West 470 541 32,000  Level Vancouver Center
08:10AM 56.1833 -137.3333 331° Northwest 470 541 32,000  Level Vancouver Center
08:11AM 56.2833 -137.4333 293° West 470 541 32,000  Level Anchorage Center
08:12AM 56.3500 -137.7167 293° West 470 541 32,000  Level Vancouver Center
08:13AM 56.4000 -137.9333 294° West 470 541 32,000  Level Vancouver Center
08:14AM 56.4500 -138.1333 301° West 470 541 32,000  Level Vancouver Center
08:15AM 56.5167 -138.3333 291° West 470 541 32,000  Level Vancouver Center
08:16AM 56.5667 -138.5667 299° West 470 541 32,000  Level Vancouver Center
08:17AM 56.6333 -138.7833 295° West 470 541 32,000  Level Vancouver Center
08:18AM 56.6833 -138.9833 299° West 470 541 32,000  Level Vancouver Center
08:19AM 56.7500 -139.2000 295° West 470 541 32,000  Level Vancouver Center
08:20AM 56.8000 -139.4000 295° West 470 541 32,000  Level Vancouver Center
08:21AM 56.8500 -139.6000 290° West 470 541 32,000  Level Vancouver Center
08:22AM 56.9000 -139.8500 300° West 470 541 32,000  Level Vancouver Center
08:23AM 56.9667 -140.0667 295° West 470 541 32,000  Level Vancouver Center
08:24AM 57.0167 -140.2667 300° West 470 541 32,000  Level Vancouver Center
08:25AM 57.0833 -140.4833 287° West 470 541 32,000  Level Vancouver Center
08:26AM 57.1167 -140.6833 293° West 460 529 32,000  Level Vancouver Center
08:27AM 57.1667 -140.9000 300° West 460 529 32,000  Level Vancouver Center
08:28AM 57.2333 -141.1167 305° West 460 529 32,000  Level Vancouver Center
08:29AM 57.2833 -141.2500 293° West 450 518 32,000  Level Anchorage Center
08:30AM 57.3333 -141.4667 300° West 450 518 32,000  Level Anchorage Center
08:31AM 57.4000 -141.6833 293° West 460 529 32,000  Level Anchorage Center
08:32AM 57.4500 -141.9000 293° West 460 529 32,000  Level Anchorage Center
08:33AM 57.5000 -142.1167 293° West 460 529 32,000  Level Anchorage Center
08:34AM 57.5500 -142.3333 292° West 460 529 32,000  Level Anchorage Center
08:35AM 57.6000 -142.5667 293° West 460 529 32,000  Level Anchorage Center
08:36AM 57.6500 -142.7833 292° West 460 529 32,000  Level Anchorage Center
08:37AM 57.7000 -143.0167 293° West 460 529 32,000  Level Anchorage Center
08:38AM 57.7500 -143.2333 293° West 460 529 32,000  Level Anchorage Center
08:39AM 57.8000 -143.4500 292° West 450 518 32,000  Level Anchorage Center
08:40AM 57.8500 -143.6833 294° West 460 529 32,000  Level Anchorage Center
08:41AM 57.9000 -143.9000 285° West 460 529 32,000  Level Anchorage Center
08:42AM 57.9333 -144.1333 294° West 460 529 32,000  Level Anchorage Center
08:43AM 57.9833 -144.3500 294° West 450 518 32,000  Level Anchorage Center
08:44AM 58.0333 -144.5667 292° West 460 529 32,000  Level Anchorage Center
08:45AM 58.0833 -144.8000 294° West 450 518 32,000  Level Anchorage Center
08:46AM 58.1333 -145.0167 285° West 450 518 32,000  Level Anchorage Center
08:47AM 58.1667 -145.2500 292° West 450 518 32,000  Level Anchorage Center
08:48AM 58.2167 -145.4833 294° West 460 529 32,000  Level Anchorage Center
08:49AM 58.2667 -145.7000 285° West 460 529 32,000  Level Anchorage Center
08:50AM 58.3000 -145.9333 292° West 460 529 32,000  Level Anchorage Center
08:51AM 58.3500 -146.1667 292° West 450 518 32,000  Level Anchorage Center
08:52AM 58.4000 -146.4000 285° West 460 529 32,000  Level Anchorage Center
08:53AM 58.4333 -146.6333 292° West 460 529 32,000  Level Anchorage Center
08:54AM 58.4833 -146.8667 294° West 450 518 32,000  Level Anchorage Center
08:55AM 58.5333 -147.0833 285° West 450 518 32,000  Level Anchorage Center
08:56AM 58.5667 -147.3167 292° West 460 529 32,000  Level Anchorage Center
08:57AM 58.6167 -147.5500 284° West 460 529 32,000  Level Anchorage Center
08:58AM 58.6500 -147.8000 292° West 460 529 32,000  Level Anchorage Center
08:59AM 58.7000 -148.0333 285° West 460 529 32,000  Level Anchorage Center
09:00AM 58.7333 -148.2667 285° West 460 529 32,000  Level Anchorage Center
09:01AM 58.7667 -148.5000 293° West 450 518 32,000  Level Anchorage Center
09:02AM 58.8167 -148.7333 286° West 460 529 32,000  Level Anchorage Center
09:03AM 58.8500 -148.9667 286° West 460 529 32,000  Level Anchorage Center
09:04AM 58.8833 -149.2000 291° West 450 518 32,000  Level Anchorage Center
09:05AM 58.9333 -149.4500 286° West 460 529 32,000  Level Anchorage Center
09:06AM 58.9667 -149.6833 286° West 440 506 32,000  Level Anchorage Center
09:07AM 59.0000 -149.9167 285° West 450 518 32,000  Level Anchorage Center
09:08AM 59.0333 -150.1667 293° West 450 518 32,000  Level Anchorage Center
09:09AM 59.0833 -150.4000 286° West 450 518 32,000  Level Anchorage Center
09:10AM 59.1167 -150.6333 286° West 450 518 32,000  Level Anchorage Center
09:11AM 59.1500 -150.8667 285° West 450 518 32,000  Level Anchorage Center
09:12AM 59.1833 -151.1167 286° West 450 518 32,000  Level Anchorage Center
09:13AM 59.2167 -151.3500 285° West 460 529 32,000  Level Anchorage Center
09:14AM 59.2500 -151.6000 286° West 460 529 32,000  Level Anchorage Center
09:15AM 59.2833 -151.8333 285° West 460 529 32,000  Level Anchorage Center
09:16AM 59.3167 -152.0833 285° West 460 529 32,000  Level Anchorage Center
09:17AM 59.3500 -152.3333 286° West 460 529 32,000  Level Anchorage Center
09:18AM 59.3833 -152.5667 285° West 460 529 32,000  Level Anchorage Center
09:19AM 59.4167 -152.8167 285° West 460 529 32,000  Level Anchorage Center
09:20AM 59.4500 -153.0667 283° West 450 518 32,000  Level Anchorage Center
09:21AM 59.4833 -153.3500 285° West 460 529 32,000  Level Anchorage Center
09:22AM 59.5167 -153.6000 285° West 470 541 32,000  Level Anchorage Center
09:23AM 59.5500 -153.8500 285° West 460 529 32,000  Level Anchorage Center
09:24AM 59.5833 -154.1000 278° West 470 541 32,000  Level Anchorage Center
09:25AM 59.6000 -154.3333 285° West 460 529 32,000  Level Anchorage Center
09:26AM 59.6333 -154.5833 285° West 460 529 32,000  Level Anchorage Center
09:27AM 59.6667 -154.8333 278° West 460 529 32,000  Level Anchorage Center
09:28AM 59.6833 -155.0833 285° West 460 529 32,000  Level Anchorage Center
09:29AM 59.7167 -155.3333 285° West 470 541 32,000  Level Anchorage Center
09:30AM 59.7500 -155.5833 277° West 460 529 32,000  Level Anchorage Center
09:31AM 59.7667 -155.8667 285° West 460 529 32,000  Level Anchorage Center
09:32AM 59.8000 -156.1167 278° West 460 529 32,000  Level Anchorage Center
09:33AM 59.8167 -156.3500 285° West 460 529 32,000  Level Anchorage Center
09:34AM 59.8500 -156.6000 278° West 460 529 32,000  Level Anchorage Center
09:35AM 59.8667 -156.8500 284° West 470 541 32,000  Level Anchorage Center
09:36AM 59.9000 -157.1167 278° West 470 541 32,000  Level Anchorage Center
09:37AM 59.9167 -157.3667 284° West 470 541 32,000 240 Level Anchorage Center
09:38AM 59.9500 -157.6333 278° West 470 541 32,500 480 Climbing Anchorage Center
09:39AM 59.9667 -157.8833 277° West 470 541 33,000 240 Climbing Anchorage Center
09:40AM 59.9833 -158.1500 282° West 470 541 33,000  Level Anchorage Center
09:41AM 60.0167 -158.4667 278° West 470 541 33,000  Level Anchorage Center
09:42AM 60.0333 -158.7167 284° West 470 541 33,000  Level Anchorage Center
09:43AM 60.0667 -158.9833 278° West 480 552 33,000  Level Anchorage Center
09:44AM 60.0833 -159.2333 277° West 480 552 33,000  Level Anchorage Center
09:45AM 60.1000 -159.5000 278° West 480 552 33,000  Level Anchorage Center
09:46AM 60.1167 -159.7500 277° West 470 541 33,000  Level Anchorage Center
09:47AM 60.1333 -160.0167 277° West 480 552 33,000  Level Anchorage Center
09:48AM 60.1500 -160.2833 277° West 480 552 33,000  Level Anchorage Center
09:49AM 60.1667 -160.5500 277° West 480 552 33,000  Level Anchorage Center
09:50AM 60.1833 -160.8167 282° West 480 552 33,000  Level Anchorage Center
09:51AM 60.2167 -161.1333 270° West 470 541 33,000  Level Anchorage Center
09:52AM 60.2167 -161.4000 277° West 480 552 33,000  Level Anchorage Center
09:53AM 60.2333 -161.6667 277° West 480 552 33,000  Level Anchorage Center
09:55AM 60.2667 -162.2000 277° West 470 541 33,000  Level Anchorage Center
09:56AM 60.2833 -162.4667 277° West 480 552 33,000  Level Anchorage Center
09:57AM 60.3000 -162.7333 277° West 480 552 33,000  Level Anchorage Center
09:58AM 60.3167 -163.0000 270° West 480 552 33,000  Level Anchorage Center
09:59AM 60.3167 -163.2667 278° West 480 552 33,000  Level Anchorage Center
10:00AM 60.3333 -163.5167 277° West 480 552 33,000  Level Anchorage Center
10:01AM 60.3500 -163.7833 277° West 490 564 33,000  Level Anchorage Center
10:02AM 60.3667 -164.0667 270° West 490 564 33,000  Level Anchorage Center
10:03AM 60.3667 -164.3333 277° West 480 552 33,000  Level Anchorage Center
10:04AM 60.3833 -164.6167 273° West 490 564 33,000  Level Anchorage Center
10:07AM 60.4000 -165.2167 277° West 480 552 33,000  Level Anchorage Center
10:08AM 60.4167 -165.4833 270° West 480 552 33,000  Level Anchorage Center
10:09AM 60.4167 -165.7667 270° West 480 552 33,000  Level Anchorage Center
10:10AM 60.4167 -166.0333 277° West 480 552 33,000  Level Anchorage Center
10:11AM 60.4333 -166.3167 270° West 490 564 33,000  Level Anchorage Center
10:12AM 60.4333 -166.5833 277° West 480 552 33,000  Level Anchorage Center
10:13AM 60.4500 -166.8667 270° West 490 564 33,000  Level Anchorage Center
10:14AM 60.4500 -167.1500 270° West 490 564 33,000  Level Anchorage Center
10:15AM 60.4500 -167.4333 270° West 490 564 33,000  Level Anchorage Center
10:16AM 60.4500 -167.7000 270° West 490 564 33,000  Level Anchorage Center
10:17AM 60.4500 -167.9333 277° West 490 564 33,000  Level Anchorage Center
10:18AM 60.4667 -168.2167 270° West 490 564 33,000  Level Anchorage Center
10:19AM 60.4667 -168.5500 270° West 490 564 33,000  Level Anchorage Center
10:20AM 60.4667 -168.7667 270° West 490 564 33,000 60 Level Anchorage Center
10:21AM 60.4667 -169.0500 270° West 490 564 33,200 480 Climbing Anchorage Center
10:22AM 60.4667 -169.3167 270° West 480 552 34,000 360 Climbing Anchorage Center
10:23AM 60.4667 -169.6000 270° West 490 564 34,000  Level Anchorage Center
10:24AM 60.4667 -169.8833 270° West 490 564 34,000  Level Anchorage Center
10:25AM 60.4667 -170.1500 263° West 490 564 34,000  Level Anchorage Center
10:26AM 60.4500 -170.4333 270° West 490 564 34,000  Level Anchorage Center
10:27AM 60.4500 -170.7167 270° West 500 575 34,000  Level Anchorage Center
10:28AM 60.4500 -170.9833 270° West 490 564 34,000  Level Anchorage Center
10:29AM 60.4500 -171.2667 270° West 490 564 34,000  Level Anchorage Center
10:30AM 60.4500 -171.5500 263° West 490 564 34,000  Level Anchorage Center
10:31AM 60.4333 -171.8167 270° West 480 552 34,000  Level Anchorage Center
10:32AM 60.4333 -172.1500 263° West 490 564 34,000  Level Anchorage Center
10:33AM 60.4167 -172.4167 270° West 490 564 34,000  Level Anchorage Center
10:34AM 60.4167 -172.7000 270° West 490 564 34,000  Level Anchorage Center
10:35AM 60.4167 -172.9833 263° West 490 564 34,000  Level Anchorage Center
10:36AM 60.4000 -173.2500 270° West 490 564 34,000  Level Anchorage Center
10:37AM 60.4000 -173.5333 263° West 490 564 34,000  Level Anchorage Center
10:38AM 60.3833 -173.8167 263° West 500 575 34,000  Level Anchorage Center
10:39AM 60.3667 -174.1000 270° West 490 564 34,000  Level Anchorage Center
10:40AM 60.3667 -174.3667 263° West 490 564 34,000  Level Anchorage Center
10:41AM 60.3500 -174.6500 267° West 490 564 34,000  Level Anchorage Center
10:43AM 60.3333 -175.1833 266° West 501 577 34,000  Level Anchorage Center
10:53AM 60.2000 -177.9000 252° West 513 590 34,000  Level Anchorage Center
10:57AM 60.0167 -178.9833 253° West 516 594 34,000  Level Anchorage Center
11:00AM 59.8660 -179.9283 251° West 513 590 34,000  Level FlightAware Transoceanic
11:04AM 59.6738 178.9908 250° West 516 594 34,000  Level FlightAware Transoceanic
11:05AM 59.6234 178.7142 250° West 516 594 34,000  Level FlightAware Transoceanic
11:06AM 59.5724 178.4383 250° West 516 594 34,000  Level FlightAware Transoceanic
11:07AM 59.5208 178.1633 250° West 516 594 34,000  Level FlightAware Transoceanic
11:08AM 59.4686 177.8892 249° West 516 594 34,000  Level FlightAware Transoceanic
11:09AM 59.4159 177.6158 249° West 516 594 34,000  Level FlightAware Transoceanic
11:10AM 59.3626 177.3434 249° West 516 594 34,000  Level FlightAware Transoceanic
11:11AM 59.3087 177.0718 249° West 516 594 34,000  Level FlightAware Transoceanic
11:12AM 59.2543 176.8011 248° West 516 594 34,000  Level FlightAware Transoceanic
11:13AM 59.1993 176.5312 248° West 516 594 34,000  Level FlightAware Transoceanic
11:14AM 59.1437 176.2622 248° West 516 594 34,000  Level FlightAware Transoceanic
11:15AM 59.0876 175.9941 248° West 516 594 34,000  Level FlightAware Transoceanic
11:16AM 59.0309 175.7269 247° West 516 594 34,000  Level FlightAware Transoceanic
11:17AM 58.9737 175.4605 247° West 516 594 34,000  Level FlightAware Transoceanic
11:18AM 58.9160 175.1951 247° West 516 594 34,000  Level FlightAware Transoceanic
11:19AM 58.8577 174.9305 247° West 516 594 34,000  Level FlightAware Transoceanic
11:20AM 58.7989 174.6668 247° West 516 594 34,000  Level FlightAware Transoceanic
11:21AM 58.7395 174.4040 246° West 516 594 34,000  Level FlightAware Transoceanic
11:22AM 58.6796 174.1422 246° West 516 594 34,000  Level FlightAware Transoceanic
11:23AM 58.6192 173.8812 246° West 516 594 34,000  Level FlightAware Transoceanic
11:24AM 58.5582 173.6211 246° West 516 594 34,000  Level FlightAware Transoceanic
11:25AM 58.4967 173.3619 245° Southwest 516 594 34,000  Level FlightAware Transoceanic
11:26AM 58.4347 173.1037 245° Southwest 516 594 34,000  Level FlightAware Transoceanic
11:27AM 58.3722 172.8463 245° Southwest 516 594 34,000  Level FlightAware Transoceanic
11:28AM 58.3092 172.5899 245° Southwest 516 594 34,000  Level FlightAware Transoceanic
11:29AM 58.2456 172.3344 245° Southwest 516 594 34,000  Level FlightAware Transoceanic
11:30AM 58.1816 172.0798 244° Southwest 516 594 34,000  Level FlightAware Transoceanic
11:31AM 58.1170 171.8261 244° Southwest 516 594 34,000  Level FlightAware Transoceanic
11:32AM 58.0520 171.5733 244° Southwest 516 594 34,000  Level FlightAware Transoceanic
11:33AM 57.9864 171.3215 244° Southwest 516 594 34,000  Level FlightAware Transoceanic
11:34AM 57.9203 171.0706 244° Southwest 516 594 34,000  Level FlightAware Transoceanic
11:35AM 57.8538 170.8206 243° Southwest 516 594 34,000  Level FlightAware Transoceanic
11:36AM 57.7868 170.5715 243° Southwest 516 594 34,000  Level FlightAware Transoceanic
11:37AM 57.7192 170.3234 243° Southwest 516 594 34,000  Level FlightAware Transoceanic
11:38AM 57.6512 170.0762 243° Southwest 516 594 34,000  Level FlightAware Transoceanic
11:39AM 57.5827 169.8299 242° Southwest 516 594 34,000  Level FlightAware Transoceanic
11:40AM 57.5138 169.5846 242° Southwest 516 594 34,000  Level FlightAware Transoceanic
11:41AM 57.4444 169.3401 242° Southwest 516 594 34,000  Level FlightAware Transoceanic
11:42AM 57.3744 169.0966 242° Southwest 516 594 34,000  Level FlightAware Transoceanic
11:43AM 57.3041 168.8541 242° Southwest 516 594 34,000  Level FlightAware Transoceanic
11:44AM 57.2332 168.6124 243° Southwest 516 594 34,000  Level FlightAware Transoceanic
11:45AM 57.1722 168.3939 243° Southwest  Level FlightAware Approximate
11:46AM 57.1108 168.1761 242° Southwest  Level FlightAware Approximate
11:47AM 57.0490 167.9590 242° Southwest  Level FlightAware Approximate
11:48AM 56.9869 167.7427 242° Southwest  Level FlightAware Approximate
11:49AM 56.9244 167.5270 242° Southwest  Level FlightAware Approximate
11:50AM 56.8615 167.3121 242° Southwest  Level FlightAware Approximate
11:51AM 56.7982 167.0979 242° Southwest  Level FlightAware Approximate
11:52AM 56.7346 166.8844 241° Southwest  Level FlightAware Approximate
11:53AM 56.6706 166.6717 241° Southwest  Level FlightAware Approximate
11:54AM 56.6063 166.4597 241° Southwest  Level FlightAware Approximate
11:55AM 56.5416 166.2484 241° Southwest  Level FlightAware Approximate
11:56AM 56.4765 166.0378 241° Southwest  Level FlightAware Approximate
11:57AM 56.4111 165.8280 240° Southwest  Level FlightAware Approximate
11:58AM 56.3453 165.6188 240° Southwest  Level FlightAware Approximate
11:59AM 56.2792 165.4104 240° Southwest  Level FlightAware Approximate
12:00PM 56.2127 165.2027 240° Southwest  Level FlightAware Approximate
12:01PM 56.1459 164.9958 240° Southwest  Level FlightAware Approximate
12:02PM 56.0788 164.7895 240° Southwest  Level FlightAware Approximate
12:03PM 56.0113 164.5840 239° Southwest  Level FlightAware Approximate
12:04PM 55.9434 164.3792 239° Southwest  Level FlightAware Approximate
12:05PM 55.8752 164.1751 239° Southwest  Level FlightAware Approximate
12:06PM 55.8067 163.9718 239° Southwest  Level FlightAware Approximate
12:07PM 55.7379 163.7691 239° Southwest  Level FlightAware Approximate
12:08PM 55.6687 163.5672 239° Southwest  Level FlightAware Approximate
12:09PM 55.5992 163.3660 238° Southwest  Level FlightAware Approximate
12:10PM 55.5293 163.1654 238° Southwest  Level FlightAware Approximate
12:11PM 55.4591 162.9656 238° Southwest  Level FlightAware Approximate
12:12PM 55.3886 162.7666 243° Southwest  Level FlightAware Approximate
12:13PM 55.3287 162.5573 243° Southwest  Level FlightAware Approximate
12:14PM 55.2685 162.3487 243° Southwest  Level FlightAware Approximate
12:15PM 55.2078 162.1408 243° Southwest  Level FlightAware Approximate
12:16PM 55.1469 161.9335 243° Southwest  Level FlightAware Approximate
12:17PM 55.0855 161.7268 242° Southwest  Level FlightAware Approximate
12:18PM 55.0238 161.5207 242° Southwest  Level FlightAware Approximate
12:19PM 54.9618 161.3153 242° Southwest  Level FlightAware Approximate
12:20PM 54.8994 161.1105 242° Southwest  Level FlightAware Approximate
12:21PM 54.8367 160.9064 242° Southwest  Level FlightAware Approximate
12:22PM 54.7737 160.7029 242° Southwest  Level FlightAware Approximate
12:23PM 54.7103 160.5000 241° Southwest  Level FlightAware Approximate
12:24PM 54.6465 160.2978 241° Southwest  Level FlightAware Approximate
12:25PM 54.5825 160.0961 241° Southwest  Level FlightAware Approximate
12:26PM 54.5181 159.8952 241° Southwest  Level FlightAware Approximate
12:27PM 54.4533 159.6948 241° Southwest  Level FlightAware Approximate
12:28PM 54.3883 159.4951 241° Southwest  Level FlightAware Approximate
12:29PM 54.3229 159.2961 241° Southwest  Level FlightAware Approximate
12:30PM 54.2572 159.0976 240° Southwest  Level FlightAware Approximate
12:31PM 54.1911 158.8998 240° Southwest  Level FlightAware Approximate
12:32PM 54.1247 158.7027 240° Southwest  Level FlightAware Approximate
12:33PM 54.0580 158.5061 240° Southwest  Level FlightAware Approximate
12:34PM 53.9910 158.3102 240° Southwest  Level FlightAware Approximate
12:35PM 53.9237 158.1149 240° Southwest  Level FlightAware Approximate
12:36PM 53.8561 157.9203 239° Southwest  Level FlightAware Approximate
12:37PM 53.7881 157.7263 239° Southwest  Level FlightAware Approximate
12:38PM 53.7198 157.5329 239° Southwest  Level FlightAware Approximate
12:39PM 53.6513 157.3401 239° Southwest  Level FlightAware Approximate
12:40PM 53.5824 157.1480 239° Southwest  Level FlightAware Approximate
12:41PM 53.5132 156.9565 239° Southwest  Level FlightAware Approximate
12:42PM 53.4437 156.7656 238° Southwest  Level FlightAware Approximate
12:43PM 53.3739 156.5754 238° Southwest  Level FlightAware Approximate
12:44PM 53.3038 156.3857 238° Southwest  Level FlightAware Approximate
12:45PM 53.2334 156.1967 239° Southwest  Level FlightAware Approximate
12:46PM 53.1643 156.0067 239° Southwest  Level FlightAware Approximate
12:47PM 53.0949 155.8172 239° Southwest  Level FlightAware Approximate
12:48PM 53.0252 155.6284 238° Southwest  Level FlightAware Approximate
12:49PM 52.9552 155.4402 238° Southwest  Level FlightAware Approximate
12:50PM 52.8849 155.2526 238° Southwest  Level FlightAware Approximate
12:51PM 52.8143 155.0656 238° Southwest  Level FlightAware Approximate
12:52PM 52.7435 154.8792 238° Southwest  Level FlightAware Approximate
12:53PM 52.6723 154.6934 238° Southwest  Level FlightAware Approximate
12:54PM 52.6008 154.5083 237° Southwest  Level FlightAware Approximate
12:55PM 52.5291 154.3237 237° Southwest  Level FlightAware Approximate
12:56PM 52.4571 154.1397 237° Southwest  Level FlightAware Approximate
12:57PM 52.3848 153.9564 237° Southwest  Level FlightAware Approximate
12:58PM 52.3122 153.7736 237° Southwest  Level FlightAware Approximate
12:59PM 52.2393 153.5914 237° Southwest  Level FlightAware Approximate
01:00PM 52.1661 153.4099 237° Southwest  Level FlightAware Approximate
01:01PM 52.0927 153.2289 236° Southwest  Level FlightAware Approximate
01:02PM 52.0190 153.0485 236° Southwest  Level FlightAware Approximate
01:03PM 51.9450 152.8688 236° Southwest  Level FlightAware Approximate
01:04PM 51.8707 152.6896 236° Southwest  Level FlightAware Approximate
01:05PM 51.7962 152.5110 236° Southwest  Level FlightAware Approximate
01:06PM 51.7214 152.3330 236° Southwest  Level FlightAware Approximate
01:07PM 51.6463 152.1556 236° Southwest  Level FlightAware Approximate
01:08PM 51.5710 151.9787 235° Southwest  Level FlightAware Approximate
01:09PM 51.4954 151.8025 235° Southwest  Level FlightAware Approximate
01:10PM 51.4196 151.6268 235° Southwest  Level FlightAware Approximate
01:11PM 51.3434 151.4518 235° Southwest  Level FlightAware Approximate
01:12PM 51.2671 151.2773 235° Southwest  Level FlightAware Approximate
01:13PM 51.1904 151.1034 235° Southwest  Level FlightAware Approximate
01:14PM 51.1135 150.9300 235° Southwest  Level FlightAware Approximate
01:15PM 51.0364 150.7573 235° Southwest  Level FlightAware Approximate
01:16PM 50.9590 150.5851 234° Southwest  Level FlightAware Approximate
01:17PM 50.8813 150.4135 234° Southwest  Level FlightAware Approximate
01:18PM 50.8034 150.2424 234° Southwest  Level FlightAware Approximate
01:19PM 50.7252 150.0720 234° Southwest  Level FlightAware Approximate
01:20PM 50.6468 149.9021 234° Southwest  Level FlightAware Approximate
01:21PM 50.5681 149.7328 234° Southwest  Level FlightAware Approximate
01:22PM 50.4893 149.5640 234° Southwest  Level FlightAware Approximate
01:23PM 50.4101 149.3958 233° Southwest  Level FlightAware Approximate
01:24PM 50.3307 149.2282 233° Southwest  Level FlightAware Approximate
01:25PM 50.2511 149.0611 233° Southwest  Level FlightAware Approximate
01:26PM 50.1712 148.8946 233° Southwest  Level FlightAware Approximate
01:27PM 50.0911 148.7286 233° Southwest  Level FlightAware Approximate
01:28PM 50.0108 148.5632 233° Southwest  Level FlightAware Approximate
01:29PM 49.9302 148.3983 233° Southwest  Level FlightAware Approximate
01:30PM 49.8494 148.2340 233° Southwest  Level FlightAware Approximate
01:31PM 49.7684 148.0703 232° Southwest  Level FlightAware Approximate
01:32PM 49.6871 147.9071 232° Southwest  Level FlightAware Approximate
01:33PM 49.6057 147.7444 232° Southwest  Level FlightAware Approximate
01:34PM 49.5239 147.5823 232° Southwest  Level FlightAware Approximate
01:35PM 49.4420 147.4207 232° Southwest  Level FlightAware Approximate
01:36PM 49.3598 147.2597 232° Southwest  Level FlightAware Approximate
01:37PM 49.2774 147.0992 232° Southwest  Level FlightAware Approximate
01:38PM 49.1948 146.9392 232° Southwest  Level FlightAware Approximate
01:39PM 49.1120 146.7798 231° Southwest  Level FlightAware Approximate
01:40PM 49.0289 146.6209 231° Southwest  Level FlightAware Approximate
01:41PM 48.9457 146.4625 231° Southwest  Level FlightAware Approximate
01:42PM 48.8622 146.3047 231° Southwest  Level FlightAware Approximate
01:43PM 48.7785 146.1474 231° Southwest  Level FlightAware Approximate
01:44PM 48.6946 145.9906 231° Southwest  Level FlightAware Approximate
01:45PM 48.6104 145.8343 231° Southwest  Level FlightAware Approximate
01:46PM 48.5261 145.6786 231° Southwest  Level FlightAware Approximate
01:47PM 48.4416 145.5234 231° Southwest  Level FlightAware Approximate
01:48PM 48.3568 145.3687 230° Southwest  Level FlightAware Approximate
01:49PM 48.2718 145.2145 230° Southwest  Level FlightAware Approximate
01:50PM 48.1867 145.0608 230° Southwest  Level FlightAware Approximate
01:51PM 48.1013 144.9076 230° Southwest  Level FlightAware Approximate
01:52PM 48.0157 144.7549 230° Southwest  Level FlightAware Approximate
01:53PM 47.9299 144.6028 230° Southwest  Level FlightAware Approximate
01:54PM 47.8440 144.4511 230° Southwest  Level FlightAware Approximate
01:55PM 47.7578 144.3000 230° Southwest  Level FlightAware Approximate
01:56PM 47.6714 144.1493 230° Southwest  Level FlightAware Approximate
01:57PM 47.5848 143.9992 229° Southwest  Level FlightAware Approximate
01:58PM 47.4981 143.8495 229° Southwest  Level FlightAware Approximate
01:59PM 47.4111 143.7004 229° Southwest  Level FlightAware Approximate
02:00PM 47.3240 143.5517 229° Southwest  Level FlightAware Approximate
02:01PM 47.2366 143.4035 230° Southwest  Level FlightAware Approximate
02:02PM 47.1509 143.2536 230° Southwest  Level FlightAware Approximate
02:03PM 47.0650 143.1041 230° Southwest  Level FlightAware Approximate
02:04PM 46.9789 142.9551 230° Southwest  Level FlightAware Approximate
02:05PM 46.8925 142.8065 230° Southwest  Level FlightAware Approximate
02:06PM 46.8060 142.6585 229° Southwest  Level FlightAware Approximate
02:07PM 46.7193 142.5109 229° Southwest  Level FlightAware Approximate
02:08PM 46.6325 142.3638 229° Southwest  Level FlightAware Approximate
02:09PM 46.5454 142.2172 229° Southwest  Level FlightAware Approximate
02:10PM 46.4581 142.0710 229° Southwest  Level FlightAware Approximate
02:11PM 46.3707 141.9254 229° Southwest  Level FlightAware Approximate
02:12PM 46.2831 141.7801 229° Southwest  Level FlightAware Approximate
02:13PM 46.1953 141.6354 229° Southwest  Level FlightAware Approximate
02:14PM 46.1073 141.4911 229° Southwest  Level FlightAware Approximate
02:15PM 46.0191 141.3472 228° Southwest  Level FlightAware Approximate
02:16PM 45.9308 141.2039 228° Southwest  Level FlightAware Approximate
02:17PM 45.8422 141.0610 228° Southwest  Level FlightAware Approximate
02:18PM 45.7535 140.9185 228° Southwest  Level FlightAware Approximate
02:19PM 45.6646 140.7765 228° Southwest  Level FlightAware Approximate
02:20PM 45.5756 140.6349 228° Southwest  Level FlightAware Approximate
02:21PM 45.4864 140.4938 228° Southwest  Level FlightAware Approximate
02:22PM 45.3969 140.3532 228° Southwest  Level FlightAware Approximate
02:23PM 45.3074 140.2130 228° Southwest  Level FlightAware Approximate
02:24PM 45.2176 140.0732 228° Southwest  Level FlightAware Approximate
02:25PM 45.1277 139.9339 227° Southwest  Level FlightAware Approximate
02:26PM 45.0376 139.7950 227° Southwest  Level FlightAware Approximate
02:27PM 44.9473 139.6565 227° Southwest  Level FlightAware Approximate
02:28PM 44.8569 139.5185 196° South  Level FlightAware Approximate
02:29PM 44.7378 139.4719 228° Southwest  Level FlightAware Approximate
02:30PM 44.6483 139.3332 228° Southwest  Level FlightAware Approximate
02:31PM 44.5587 139.1949 228° Southwest  Level FlightAware Approximate
02:32PM 44.4689 139.0570 228° Southwest  Level FlightAware Approximate
02:33PM 44.3789 138.9195 227° Southwest  Level FlightAware Approximate
02:34PM 44.2888 138.7824 227° Southwest  Level FlightAware Approximate
02:35PM 44.1985 138.6458 227° Southwest  Level FlightAware Approximate
02:36PM 44.1080 138.5096 227° Southwest  Level FlightAware Approximate
02:37PM 44.0174 138.3738 227° Southwest  Level FlightAware Approximate
02:38PM 43.9266 138.2384 227° Southwest  Level FlightAware Approximate
02:39PM 43.8357 138.1034 227° Southwest  Level FlightAware Approximate
02:40PM 43.7446 137.9689 227° Southwest  Level FlightAware Approximate
02:41PM 43.6533 137.8347 227° Southwest  Level FlightAware Approximate
02:42PM 43.5619 137.7010 225° Southwest  Level FlightAware Approximate
02:43PM 43.4679 137.5712 220° Southwest  Level FlightAware Approximate
02:44PM 43.3658 137.4534 220° Southwest  Level FlightAware Approximate
02:45PM 43.2636 137.3360 220° Southwest  Level FlightAware Approximate
02:46PM 43.1614 137.2190 220° Southwest  Level FlightAware Approximate
02:47PM 43.0589 137.1024 220° Southwest  Level FlightAware Approximate
02:48PM 42.9564 136.9862 220° Southwest  Level FlightAware Approximate
02:49PM 42.8538 136.8703 220° Southwest  Level FlightAware Approximate
02:50PM 42.7510 136.7549 219° Southwest  Level FlightAware Approximate
02:51PM 42.6481 136.6398 219° Southwest  Level FlightAware Approximate
02:52PM 42.5452 136.5251 219° Southwest  Level FlightAware Approximate
02:53PM 42.4421 136.4108 219° Southwest  Level FlightAware Approximate
02:54PM 42.3388 136.2969 219° Southwest  Level FlightAware Approximate
02:55PM 42.2355 136.1833 219° Southwest  Level FlightAware Approximate
02:56PM 42.1321 136.0702 219° Southwest  Level FlightAware Approximate
02:57PM 42.0285 135.9573 219° Southwest  Level FlightAware Approximate
02:58PM 41.9249 135.8449 219° Southwest  Level FlightAware Approximate
02:59PM 41.8211 135.7328 219° Southwest  Level FlightAware Approximate
03:00PM 41.7172 135.6211 219° Southwest  Level FlightAware Approximate
03:01PM 41.6132 135.5097 219° Southwest  Level FlightAware Approximate
03:02PM 41.5091 135.3987 219° Southwest  Level FlightAware Approximate
03:03PM 41.4049 135.2881 218° Southwest  Level FlightAware Approximate
03:04PM 41.3006 135.1778 218° Southwest  Level FlightAware Approximate
03:05PM 41.1962 135.0679 218° Southwest  Level FlightAware Approximate
03:06PM 41.0917 134.9583 218° Southwest  Level FlightAware Approximate
03:07PM 40.9870 134.8490 228° Southwest  Level FlightAware Approximate
03:08PM 40.8983 134.7175 228° Southwest  Level FlightAware Approximate
03:09PM 40.8095 134.5864 228° Southwest  Level FlightAware Approximate
03:10PM 40.7205 134.4556 228° Southwest  Level FlightAware Approximate
03:11PM 40.6314 134.3251 228° Southwest  Level FlightAware Approximate
03:12PM 40.5421 134.1950 228° Southwest  Level FlightAware Approximate
03:13PM 40.4526 134.0653 228° Southwest  Level FlightAware Approximate
03:14PM 40.3631 133.9359 228° Southwest  Level FlightAware Approximate
03:15PM 40.2733 133.8068 228° Southwest  Level FlightAware Approximate
03:16PM 40.1835 133.6781 228° Southwest  Level FlightAware Approximate
03:17PM 40.0935 133.5497 227° Southwest  Level FlightAware Approximate
03:18PM 40.0033 133.4216 227° Southwest  Level FlightAware Approximate
03:19PM 39.9130 133.2939 227° Southwest  Level FlightAware Approximate
03:20PM 39.8226 133.1666 227° Southwest  Level FlightAware Approximate
03:21PM 39.7320 133.0396 227° Southwest  Level FlightAware Approximate
03:22PM 39.6413 132.9129 227° Southwest  Level FlightAware Approximate
03:23PM 39.5505 132.7865 227° Southwest  Level FlightAware Approximate
03:24PM 39.4595 132.6604 227° Southwest  Level FlightAware Approximate
03:25PM 39.3684 132.5347 227° Southwest  Level FlightAware Approximate
03:26PM 39.2771 132.4094 227° Southwest  Level FlightAware Approximate
03:27PM 39.1857 132.2843 227° Southwest  Level FlightAware Approximate
03:28PM 39.0942 132.1596 227° Southwest  Level FlightAware Approximate
03:29PM 39.0026 132.0352 226° Southwest  Level FlightAware Approximate
03:30PM 38.9108 131.9111 226° Southwest  Level FlightAware Approximate
03:31PM 38.8189 131.7874 226° Southwest  Level FlightAware Approximate
03:32PM 38.7268 131.6639 226° Southwest  Level FlightAware Approximate
03:33PM 38.6347 131.5408 226° Southwest  Level FlightAware Approximate
03:34PM 38.5424 131.4180 226° Southwest  Level FlightAware Approximate
03:35PM 38.4499 131.2955 227° Southwest  Level FlightAware Approximate
03:36PM 38.3588 131.1715 227° Southwest  Level FlightAware Approximate
03:37PM 38.2676 131.0479 227° Southwest  Level FlightAware Approximate
03:38PM 38.1763 130.9245 227° Southwest  Level FlightAware Approximate
03:39PM 38.0848 130.8015 227° Southwest  Level FlightAware Approximate
03:40PM 37.9932 130.6788 226° Southwest  Level FlightAware Approximate
03:41PM 37.9014 130.5564 226° Southwest  Level FlightAware Approximate
03:42PM 37.8096 130.4343 226° Southwest  Level FlightAware Approximate
03:43PM 37.7176 130.3125 226° Southwest  Level FlightAware Approximate
03:44PM 37.6255 130.1909 226° Southwest  Level FlightAware Approximate
03:45PM 37.5332 130.0697 226° Southwest  Level FlightAware Approximate
03:46PM 37.4409 129.9489 226° Southwest  Level FlightAware Approximate
03:47PM 37.3484 129.8282 226° Southwest  Level FlightAware Approximate
03:48PM 37.2558 129.7079 226° Southwest  Level FlightAware Approximate
03:49PM 37.1630 129.5879 226° Southwest  Level FlightAware Approximate
03:50PM 37.0702 129.4682 226° Southwest  Level FlightAware Approximate
03:51PM 36.9772 129.3488 226° Southwest  Level FlightAware Approximate
03:52PM 36.8841 129.2296 226° Southwest  Level FlightAware Approximate
03:53PM 36.7909 129.1108 226° Southwest  Level FlightAware Approximate
03:54PM 36.6976 128.9922 225° Southwest  Level FlightAware Approximate
03:55PM 36.6041 128.8740 225° Southwest  Level FlightAware Approximate
03:56PM 36.5106 128.7560 225° Southwest  Level FlightAware Approximate
03:57PM 36.4169 128.6383 225° Southwest  Level FlightAware Approximate
03:58PM 36.3231 128.5209 225° Southwest  Level FlightAware Approximate
03:59PM 36.2292 128.4037 225° Southwest  Level FlightAware Approximate
04:00PM 36.1352 128.2869 225° Southwest  Level FlightAware Approximate
04:01PM 36.0411 128.1703 225° Southwest  Level FlightAware Approximate
04:02PM 35.9468 128.0540 225° Southwest  Level FlightAware Approximate
04:03PM 35.8525 127.9380 225° Southwest  Level FlightAware Approximate
04:04PM 35.7580 127.8223 225° Southwest  Level FlightAware Approximate
04:05PM 35.6634 127.7068 225° Southwest  Level FlightAware Approximate
04:06PM 35.5687 127.5917 225° Southwest  Level FlightAware Approximate
04:07PM 35.4739 127.4767 225° Southwest  Level FlightAware Approximate
04:08PM 35.3790 127.3621 225° Southwest  Level FlightAware Approximate
04:09PM 35.2840 127.2477 224° Southwest  Level FlightAware Approximate
04:10PM 35.1889 127.1336 224° Southwest  Level FlightAware Approximate
04:11PM 35.0936 127.0198 224° Southwest  Level FlightAware Approximate
04:12PM 34.9983 126.9062 224° Southwest  Level FlightAware Approximate
04:13PM 34.9029 126.7929 224° Southwest  Level FlightAware Approximate
04:14PM 34.8073 126.6798 224° Southwest  Level FlightAware Approximate
04:15PM 34.7117 126.5670 224° Southwest  Level FlightAware Approximate
04:16PM 34.6159 126.4545 224° Southwest  Level FlightAware Approximate
04:17PM 34.5201 126.3423 224° Southwest  Level FlightAware Approximate
04:18PM 34.4241 126.2303 224° Southwest  Level FlightAware Approximate
04:19PM 34.3280 126.1185 224° Southwest  Level FlightAware Approximate
04:20PM 34.2319 126.0070 224° Southwest  Level FlightAware Approximate
04:21PM 34.1356 125.8958 224° Southwest  Level FlightAware Approximate
04:22PM 34.0392 125.7848 224° Southwest  Level FlightAware Approximate
04:23PM 33.9428 125.6740 224° Southwest  Level FlightAware Approximate
04:24PM 33.8462 125.5636 223° Southwest  Level FlightAware Approximate
04:25PM 33.7496 125.4533 223° Southwest  Level FlightAware Approximate
04:26PM 33.6528 125.3434 223° Southwest  Level FlightAware Approximate
04:27PM 33.5560 125.2336 223° Southwest  Level FlightAware Approximate
04:28PM 33.4590 125.1241 223° Southwest  Level FlightAware Approximate
04:29PM 33.3619 125.0149 223° Southwest  Level FlightAware Approximate
04:30PM 33.2648 124.9059 223° Southwest  Level FlightAware Approximate
04:31PM 33.1676 124.7971 223° Southwest  Level FlightAware Approximate
04:32PM 33.0702 124.6886 223° Southwest  Level FlightAware Approximate
04:33PM 32.9728 124.5803 223° Southwest  Level FlightAware Approximate
04:34PM 32.8753 124.4723 223° Southwest  Level FlightAware Approximate
04:35PM 32.7777 124.3645 223° Southwest  Level FlightAware Approximate
04:36PM 32.6800 124.2569 223° Southwest  Level FlightAware Approximate
04:37PM 32.5822 124.1496 223° Southwest  Level FlightAware Approximate
04:38PM 32.4843 124.0425 223° Southwest  Level FlightAware Approximate
04:39PM 32.3863 123.9356 223° Southwest  Level FlightAware Approximate
04:40PM 32.2883 123.8290 223° Southwest  Level FlightAware Approximate
04:41PM 32.1901 123.7226 222° Southwest  Level FlightAware Approximate
04:42PM 32.0919 123.6164 222° Southwest  Level FlightAware Approximate
04:43PM 31.9935 123.5105 222° Southwest  Level FlightAware Approximate
04:44PM 31.8951 123.4047 222° Southwest  Level FlightAware Approximate
04:45PM 31.7966 123.2992 222° Southwest  Level FlightAware Approximate
04:46PM 31.6980 123.1940 222° Southwest  Level FlightAware Approximate
04:47PM 31.5993 123.0889 222° Southwest  Level FlightAware Approximate
04:48PM 31.5006 122.9841 222° Southwest  Level FlightAware Approximate
04:49PM 31.4017 122.8795 222° Southwest  Level FlightAware Approximate
04:50PM 31.3028 122.7751 222° Southwest  Level FlightAware Approximate
04:51PM 31.2038 122.6710 222° Southwest  Level FlightAware Approximate
04:52PM 31.1047 122.5670 222° Southwest  Level FlightAware Approximate
04:53PM 31.0055 122.4633 222° Southwest  Level FlightAware Approximate
04:54PM 30.9062 122.3598 222° Southwest  Level FlightAware Approximate
04:55PM 30.8068 122.2565 222° Southwest  Level FlightAware Approximate
04:56PM 30.7074 122.1534 222° Southwest  Level FlightAware Approximate
04:57PM 30.6079 122.0505 222° Southwest  Level FlightAware Approximate
04:58PM 30.5083 121.9479 222° Southwest  Level FlightAware Approximate
04:59PM 30.4086 121.8454 222° Southwest  Level FlightAware Approximate
05:00PM 30.3088 121.7432 221° Southwest  Level FlightAware Approximate
05:01PM 30.2090 121.6412 221° Southwest  Level FlightAware Approximate
05:02PM 30.1091 121.5393 221° Southwest  Level FlightAware Approximate
05:03PM 30.0091 121.4377 221° Southwest  Level FlightAware Approximate
05:04PM 29.9090 121.3363 221° Southwest  Level FlightAware Approximate
05:05PM 29.8089 121.2351 221° Southwest  Level FlightAware Approximate
05:06PM 29.7087 121.1341 221° Southwest  Level FlightAware Approximate
05:07PM 29.6084 121.0333 221° Southwest  Level FlightAware Approximate
05:08PM 29.5080 120.9327 221° Southwest  Level FlightAware Approximate
05:09PM 29.4075 120.8323 221° Southwest  Level FlightAware Approximate
05:10PM 29.3070 120.7320 221° Southwest  Level FlightAware Approximate
05:11PM 29.2064 120.6320 221° Southwest  Level FlightAware Approximate
05:12PM 29.1057 120.5322 221° Southwest  Level FlightAware Approximate
05:13PM 29.0050 120.4326 221° Southwest  Level FlightAware Approximate
05:14PM 28.9041 120.3332 221° Southwest  Level FlightAware Approximate
05:15PM 28.8032 120.2339 221° Southwest  Level FlightAware Approximate
05:16PM 28.7023 120.1349 221° Southwest  Level FlightAware Approximate
05:17PM 28.6012 120.0361 221° Southwest  Level FlightAware Approximate
05:18PM 28.5001 119.9374 221° Southwest  Level FlightAware Approximate
05:19PM 28.3989 119.8389 221° Southwest  Level FlightAware Approximate
05:20PM 28.2976 119.7406 221° Southwest  Level FlightAware Approximate
05:21PM 28.1973 119.6413 221° Southwest  Level FlightAware Approximate
05:22PM 28.0969 119.5420 221° Southwest  Level FlightAware Approximate
05:23PM 27.9964 119.4430 221° Southwest  Level FlightAware Approximate
05:24PM 27.8959 119.3442 221° Southwest  Level FlightAware Approximate
05:25PM 27.7952 119.2455 221° Southwest  Level FlightAware Approximate
05:26PM 27.6946 119.1471 221° Southwest  Level FlightAware Approximate
05:27PM 27.5938 119.0488 221° Southwest  Level FlightAware Approximate
05:28PM 27.4930 118.9507 221° Southwest  Level FlightAware Approximate
05:29PM 27.3921 118.8527 221° Southwest  Level FlightAware Approximate
05:30PM 27.2911 118.7550 221° Southwest  Level FlightAware Approximate
05:31PM 27.1901 118.6574 221° Southwest  Level FlightAware Approximate
05:32PM 27.0890 118.5600 221° Southwest  Level FlightAware Approximate
05:33PM 26.9878 118.4628 221° Southwest  Level FlightAware Approximate
05:34PM 26.8866 118.3658 220° Southwest  Level FlightAware Approximate
05:35PM 26.7852 118.2689 220° Southwest  Level FlightAware Approximate
05:36PM 26.6839 118.1722 220° Southwest  Level FlightAware Approximate
05:37PM 26.5824 118.0757 220° Southwest  Level FlightAware Approximate
05:38PM 26.4809 117.9793 220° Southwest  Level FlightAware Approximate
05:39PM 26.3794 117.8831 220° Southwest  Level FlightAware Approximate
05:40PM 26.2777 117.7871 220° Southwest  Level FlightAware Approximate
05:41PM 26.1761 117.6913 220° Southwest  Level FlightAware Approximate
05:42PM 26.0743 117.5956 220° Southwest  Level FlightAware Approximate
05:43PM 25.9725 117.5001 220° Southwest  Level FlightAware Approximate
05:44PM 25.8706 117.4047 220° Southwest  Level FlightAware Approximate
05:45PM 25.7687 117.3095 220° Southwest  Level FlightAware Approximate
05:46PM 25.6666 117.2145 220° Southwest  Level FlightAware Approximate
05:47PM 25.5646 117.1196 220° Southwest  Level FlightAware Approximate
05:48PM 25.4624 117.0249 220° Southwest  Level FlightAware Approximate
05:49PM 25.3603 116.9304 220° Southwest  Level FlightAware Approximate
05:50PM 25.2580 116.8360 220° Southwest  Level FlightAware Approximate
05:51PM 25.1557 116.7418 220° Southwest  Level FlightAware Approximate
05:52PM 25.0533 116.6477 220° Southwest  Level FlightAware Approximate
05:53PM 24.9509 116.5538 220° Southwest  Level FlightAware Approximate
05:54PM 24.8484 116.4601 220° Southwest  Level FlightAware Approximate
05:55PM 24.7459 116.3665 220° Southwest  Level FlightAware Approximate
05:56PM 24.6433 116.2730 220° Southwest  Level FlightAware Approximate
05:57PM 24.5406 116.1797 220° Southwest  Level FlightAware Approximate
05:58PM 24.4379 116.0866 220° Southwest  Level FlightAware Approximate
05:59PM 24.3351 115.9936 219° Southwest  Level FlightAware Approximate
06:00PM 24.2323 115.9008 219° Southwest  Level FlightAware Approximate
06:01PM 24.1294 115.8081 219° Southwest  Level FlightAware Approximate
06:02PM 24.0264 115.7156 219° Southwest  Level FlightAware Approximate
06:03PM 23.9234 115.6232 195° South  Level FlightAware Approximate
06:04PM 23.8064 115.5897 221° Southwest  Level FlightAware Approximate
06:05PM 23.7062 115.4939 221° Southwest  Level FlightAware Approximate
06:06PM 23.6053 115.3990 219° Southwest  Level FlightAware Approximate
06:07PM 23.5020 115.3076 221° Southwest  Level FlightAware Approximate
06:08PM 23.4012 115.2128 220° Southwest  Level FlightAware Approximate
06:09PM 23.2990 115.1198 221° Southwest  Level FlightAware Approximate
06:10PM 23.1982 115.0250 221° Southwest  Level FlightAware Approximate
06:11PM 23.0973 114.9306 221° Southwest  Level FlightAware Approximate
06:12PM 22.9965 114.8361 224° Southwest  Level FlightAware Approximate
06:13PM 22.9006 114.7359 220° Southwest  Level FlightAware Approximate
06:14PM 22.7987 114.6428 221° Southwest  Level FlightAware Approximate
06:15PM 22.7025 114.5524 223° Southwest  Level FlightAware Approximate
06:16PM 22.6086 114.4585 218° Southwest  Level FlightAware Approximate
06:17PM 22.5080 114.3733 217° Southwest  Level FlightAware Approximate
06:18PM 22.4065 114.2898 223° Southwest  Level FlightAware Approximate
06:19PM 22.3167 114.2000 268° West  Level FlightAware Approximate
06:20PM 22.3130 114.0620 47° Northeast  Level Estimated
06:21PM 22.8717 114.7106 220° Southwest  Level FlightAware Approximate
06:22PM 22.7740 114.6212 220° Southwest  Level FlightAware Approximate
06:23PM 22.6764 114.5319 220° Southwest  Level FlightAware Approximate
06:24PM 22.5786 114.4428 220° Southwest  Level FlightAware Approximate
06:25PM 22.4809 114.3538 220° Southwest  Level FlightAware Approximate
06:26PM 22.3831 114.2649 222° Southwest  Level FlightAware Approximate
06:27PM 22.3167 114.2000 268° West  Level FlightAware Approximate
06:28PM 22.3130 114.0620 268° West  Level Estimated
06:29PM 22.3092 113.9240 268° West  Level Estimated
06:30PM 22.3053 113.7859 88° East  Level Estimated
06:31PM 22.3092 113.9240 88° East  Level Estimated
06:32PM 22.3167 114.2000 268° West  Level FlightAware Approximate
06:33PM 22.3130 114.0620 88° East  Level Estimated
06:34PM 22.3167 114.2000 268° West  Level FlightAware Approximate
06:35PM 22.3130 114.0620 88° East  Level Estimated
06:36PM 22.3167 114.2000 268° West  Level FlightAware Approximate
06:37PM 22.3130 114.0620 88° East  Level Estimated
06:38PM 22.3167 114.2000 268° West  Level FlightAware Approximate
06:39PM 22.3130 114.0620 88° East  Level Estimated
06:40PM 22.3167 114.2000 268° West  Level FlightAware Approximate
06:41PM 22.3130 114.0620 88° East  Level Estimated
06:42PM 22.3167 114.2000 268° West  Level FlightAware Approximate
06:43PM 22.3130 114.0620 88° East  Level Estimated
06:44PM 22.3167 114.2000 268° West  Level FlightAware Approximate
06:45PM 22.3130 114.0620 88° East  Level Estimated
06:46PM 22.3167 114.2000 268° West  Level FlightAware Approximate
06:47PM 22.3130 114.0636 88° East  Level Estimated
06:48PM 22.3167 114.2000 268° West  Level FlightAware Approximate
06:49PM 22.3130 114.0636 88° East  Level Estimated
06:50PM 22.3167 114.2000 268° West  Level FlightAware Approximate
06:51PM 22.3130 114.0636 88° East  Level Estimated
06:52PM 22.3167 114.2000 268° West  Level FlightAware Approximate
06:53PM 22.3130 114.0636 88° East  Level Estimated
06:54PM 22.3167 114.2000 268° West  Level FlightAware Approximate
06:55PM 22.3131 114.0652 88° East  Level Estimated
06:56PM 22.3167 114.2000 268° West  Level FlightAware Approximate
06:57PM 22.3131 114.0652 88° East  Level Estimated
06:58PM 22.3167 114.2000 268° West  Level FlightAware Approximate
06:59PM 22.3131 114.0652 88° East  Level Estimated
07:00PM 22.3167 114.2000 268° West  Level FlightAware Approximate
07:01PM 22.3131 114.0652 88° East  Level Estimated
07:02PM 22.3167 114.2000 268° West  Level FlightAware Approximate
07:03PM 22.3131 114.0652 88° East  Level Estimated
07:04PM 22.3167 114.2000 268° West  Level FlightAware Approximate
07:05PM 22.3131 114.0652 88° East  Level Estimated
07:06PM 22.3167 114.2000 268° West  Level FlightAware Approximate
07:07PM 22.3131 114.0652 88° East  Level Estimated
07:08PM 22.3167 114.2000 88° East  Level FlightAware Approximate